createdAt,value
2022-07-25T00:01:46.925Z,42.15
2022-07-25T00:04:14.856Z,42.44
2022-07-25T00:06:42.929Z,42.25
2022-07-25T00:09:10.130Z,42.51
2022-07-25T00:11:36.974Z,42.45
2022-07-25T00:14:04.931Z,42.18
2022-07-25T00:16:32.417Z,42.45
2022-07-25T00:18:59.354Z,42.42
2022-07-25T00:21:26.188Z,42.59
2022-07-25T00:23:53.109Z,42.70
2022-07-25T00:26:20.105Z,42.93
2022-07-25T00:28:46.794Z,43.31
2022-07-25T00:31:13.844Z,43.28
2022-07-25T00:33:41.189Z,42.98
2022-07-25T00:36:09.003Z,43.56
2022-07-25T00:38:35.768Z,43.29
2022-07-25T00:41:04.251Z,43.27
2022-07-25T00:43:31.157Z,43.17
2022-07-25T00:45:59.276Z,42.87
2022-07-25T00:48:28.572Z,42.95
2022-07-25T00:50:58.901Z,43.13
2022-07-25T00:53:25.705Z,43.29
2022-07-25T00:55:52.903Z,43.46
2022-07-25T00:58:19.678Z,43.85
2022-07-25T01:00:47.465Z,43.83
2022-07-25T01:03:14.369Z,43.49
2022-07-25T01:05:41.493Z,43.29
2022-07-25T01:08:09.258Z,43.47
2022-07-25T01:10:36.704Z,43.50
2022-07-25T01:13:07.335Z,43.07
2022-07-25T01:15:34.287Z,43.66
2022-07-25T01:18:01.297Z,43.36
2022-07-25T01:20:31.536Z,43.65
2022-07-25T01:22:59.559Z,43.70
2022-07-25T01:25:27.785Z,43.59
2022-07-25T01:27:56.149Z,43.48
2022-07-25T01:30:25.109Z,43.54
2022-07-25T01:32:55.537Z,43.62
2022-07-25T01:35:22.607Z,43.41
2022-07-25T01:37:49.346Z,43.60
2022-07-25T01:40:16.396Z,43.58
2022-07-25T01:42:44.007Z,43.55
2022-07-25T01:45:12.618Z,43.48
2022-07-25T01:47:39.830Z,43.45
2022-07-25T01:50:07.634Z,43.37
2022-07-25T01:52:34.531Z,43.61
2022-07-25T01:55:01.386Z,43.56
2022-07-25T01:57:31.008Z,43.95
2022-07-25T01:59:58.798Z,44.09
2022-07-25T02:02:25.852Z,43.90
2022-07-25T02:04:53.416Z,43.98
2022-07-25T02:07:20.434Z,43.81
2022-07-25T02:09:56.344Z,44.09
2022-07-25T02:12:27.282Z,44.00
2022-07-25T02:14:54.212Z,44.48
2022-07-25T02:17:21.058Z,44.39
2022-07-25T02:19:47.767Z,44.30
2022-07-25T02:22:14.537Z,44.41
2022-07-25T02:24:41.562Z,44.47
2022-07-25T02:27:08.348Z,44.61
2022-07-25T02:29:49.288Z,44.69
2022-07-25T02:32:21.378Z,44.36
2022-07-25T02:34:49.162Z,44.80
2022-07-25T02:37:29.802Z,44.55
2022-07-25T02:40:00.285Z,44.42
2022-07-25T02:42:27.238Z,44.61
2022-07-25T02:44:53.964Z,44.74
2022-07-25T02:47:20.646Z,44.76
2022-07-25T02:49:47.391Z,44.89
2022-07-25T02:52:14.077Z,44.72
2022-07-25T02:54:40.804Z,44.72
2022-07-25T02:57:07.599Z,44.97
2022-07-25T02:59:35.208Z,44.96
2022-07-25T03:02:02.129Z,45.06
2022-07-25T03:04:28.940Z,45.08
2022-07-25T03:06:55.702Z,44.90
2022-07-25T03:09:22.518Z,45.04
2022-07-25T03:11:50.544Z,45.25
2022-07-25T03:14:17.423Z,45.50
2022-07-25T03:16:44.130Z,45.34
2022-07-25T03:19:12.867Z,45.40
2022-07-25T03:21:39.808Z,45.21
2022-07-25T03:24:07.173Z,45.22
2022-07-25T03:26:34.058Z,45.15
2022-07-25T03:29:00.837Z,45.14
2022-07-25T03:31:28.678Z,45.14
2022-07-25T03:33:55.503Z,45.29
2022-07-25T03:36:22.372Z,45.10
2022-07-25T03:38:49.136Z,44.93
2022-07-25T03:41:15.784Z,45.14
2022-07-25T03:43:42.500Z,45.12
2022-07-25T03:46:09.195Z,45.14
2022-07-25T03:48:35.976Z,45.04
2022-07-25T03:51:06.837Z,45.07
2022-07-25T03:53:54.727Z,45.01
2022-07-25T03:56:21.517Z,45.08
2022-07-25T03:58:48.317Z,44.90
2022-07-25T04:01:15.195Z,45.09
2022-07-25T04:03:41.947Z,45.29
2022-07-25T04:06:11.588Z,45.06
2022-07-25T04:08:38.778Z,45.38
2022-07-25T04:11:05.593Z,45.06
2022-07-25T04:13:32.392Z,45.02
2022-07-25T04:15:59.132Z,45.02
2022-07-25T04:18:28.698Z,45.03
2022-07-25T04:20:55.641Z,44.65
2022-07-25T04:23:22.451Z,44.92
2022-07-25T04:25:49.210Z,44.74
2022-07-25T04:28:15.861Z,44.68
2022-07-25T04:30:45.474Z,44.52
2022-07-25T04:33:13.386Z,44.18
2022-07-25T04:35:40.406Z,44.52
2022-07-25T04:38:11.891Z,44.14
2022-07-25T04:40:39.031Z,44.28
2022-07-25T04:43:06.114Z,44.38
2022-07-25T04:45:33.350Z,44.19
2022-07-25T04:48:00.595Z,44.04
2022-07-25T04:50:28.280Z,44.10
2022-07-25T04:52:54.972Z,44.07
2022-07-25T04:55:21.921Z,44.17
2022-07-25T04:57:48.726Z,44.02
2022-07-25T05:00:18.655Z,43.93
2022-07-25T05:02:47.123Z,43.97
2022-07-25T05:05:20.878Z,43.76
2022-07-25T05:07:48.790Z,43.78
2022-07-25T05:10:15.536Z,43.88
2022-07-25T05:12:42.391Z,43.63
2022-07-25T05:15:09.698Z,43.75
2022-07-25T05:17:36.836Z,43.47
2022-07-25T05:20:04.126Z,43.88
2022-07-25T05:22:31.105Z,43.52
2022-07-25T05:24:58.329Z,43.66
2022-07-25T05:27:25.389Z,43.65
2022-07-25T05:29:52.220Z,43.41
2022-07-25T05:32:26.359Z,43.51
2022-07-25T05:34:58.117Z,43.58
2022-07-25T05:37:25.584Z,43.34
2022-07-25T05:39:52.389Z,43.44
2022-07-25T05:42:19.790Z,43.18
2022-07-25T05:44:46.575Z,43.23
2022-07-25T05:47:13.683Z,43.27
2022-07-25T05:49:41.069Z,43.57
2022-07-25T05:52:12.860Z,43.36
2022-07-25T05:54:40.530Z,43.12
2022-07-25T05:57:07.383Z,43.49
2022-07-25T05:59:34.145Z,43.17
2022-07-25T06:02:04.007Z,42.69
2022-07-25T06:04:30.967Z,43.06
2022-07-25T06:06:58.063Z,43.07
2022-07-25T06:09:26.482Z,42.97
2022-07-25T06:12:00.494Z,42.49
2022-07-25T06:14:29.220Z,42.95
2022-07-25T06:16:56.665Z,42.70
2022-07-25T06:19:23.602Z,42.39
2022-07-25T06:21:50.712Z,41.80
2022-07-25T06:24:17.687Z,41.93
2022-07-25T06:26:45.803Z,41.95
2022-07-25T06:29:13.173Z,41.54
2022-07-25T06:31:40.151Z,38.50
2022-07-25T06:34:07.448Z,34.62
2022-07-25T06:36:34.812Z,33.51
2022-07-25T06:39:02.660Z,33.02
2022-07-25T06:41:29.419Z,32.08
2022-07-25T06:43:56.249Z,32.18
2022-07-25T06:46:23.197Z,32.10
2022-07-25T06:48:51.466Z,32.42
2022-07-25T06:51:18.231Z,30.86
2022-07-25T06:53:45.077Z,28.71
2022-07-25T06:56:17.216Z,26.19
2022-07-25T06:58:44.262Z,25.45
2022-07-25T07:01:11.249Z,24.43
2022-07-25T07:03:39.072Z,22.88
2022-07-25T07:06:06.924Z,22.16
2022-07-25T07:08:34.482Z,21.06
2022-07-25T07:11:01.591Z,20.69
2022-07-25T07:13:29.975Z,20.66
2022-07-25T07:15:58.134Z,19.46
2022-07-25T07:18:25.477Z,19.92
2022-07-25T07:20:52.414Z,18.87
2022-07-25T07:23:19.633Z,19.70
2022-07-25T07:25:47.298Z,19.24
2022-07-25T07:28:14.258Z,18.65
2022-07-25T07:33:27.843Z,18.10
2022-07-25T07:35:57.057Z,18.77
2022-07-25T07:38:25.024Z,17.61
2022-07-25T07:41:07.901Z,17.44
2022-07-25T07:43:34.930Z,17.36
2022-07-25T07:46:02.001Z,17.01
2022-07-25T07:48:32.721Z,15.51
2022-07-25T07:51:01.745Z,16.17
2022-07-25T07:53:47.931Z,16.09
2022-07-25T07:56:15.956Z,17.09
2022-07-25T07:58:43.641Z,16.83
2022-07-25T08:01:10.874Z,15.69
2022-07-25T08:03:37.933Z,15.74
2022-07-25T08:06:04.975Z,16.07
2022-07-25T08:08:32.358Z,16.36
2022-07-25T08:11:00.378Z,15.96
2022-07-25T08:13:30.485Z,15.75
2022-07-25T08:16:00.034Z,16.25
2022-07-25T08:18:32.721Z,15.79
2022-07-25T08:21:03.046Z,15.74
2022-07-25T08:23:32.011Z,15.45
2022-07-25T08:26:00.732Z,15.25
2022-07-25T08:28:27.439Z,15.76
2022-07-25T08:30:55.218Z,15.83
2022-07-25T08:33:22.338Z,16.03
2022-07-25T08:35:56.960Z,15.73
2022-07-25T08:38:25.972Z,16.35
2022-07-25T08:40:58.127Z,16.11
2022-07-25T08:43:43.425Z,16.11
2022-07-25T08:46:14.239Z,16.39
2022-07-25T08:48:41.001Z,16.52
2022-07-25T08:51:08.620Z,17.14
2022-07-25T08:53:37.065Z,16.65
2022-07-25T10:51:59.510Z,23.06
2022-07-25T10:54:26.407Z,23.80
2022-07-25T10:56:57.958Z,22.60
2022-07-25T10:59:29.136Z,21.93
2022-07-25T11:01:56.093Z,22.01
2022-07-25T11:04:23.067Z,22.65
2022-07-25T11:06:49.915Z,22.12
2022-07-25T11:09:26.962Z,21.03
2022-07-25T11:11:57.342Z,21.37
2022-07-25T11:14:25.785Z,21.52
2022-07-25T11:16:55.112Z,20.95
2022-07-25T11:19:29.498Z,21.05
2022-07-25T11:21:58.796Z,20.57
2022-07-25T11:24:43.044Z,19.25
2022-07-25T11:27:12.968Z,19.83
2022-07-25T11:29:41.169Z,19.67
2022-07-25T11:32:12.001Z,20.38
2022-07-25T11:34:43.017Z,20.92
2022-07-25T11:37:11.977Z,20.45
2022-07-25T11:39:41.613Z,20.77
2022-07-25T11:42:11.868Z,19.40
2022-07-25T11:44:47.564Z,20.03
2022-07-25T11:47:30.940Z,18.71
2022-07-25T11:50:01.425Z,19.36
2022-07-25T11:52:34.773Z,19.37
2022-07-25T11:55:10.025Z,19.30
2022-07-25T11:57:46.643Z,19.25
2022-07-25T12:00:22.244Z,18.93
2022-07-25T12:02:50.100Z,19.19
2022-07-25T12:05:21.681Z,19.06
2022-07-25T12:07:53.313Z,17.82
2022-07-25T12:10:36.982Z,19.39
2022-07-25T12:13:06.328Z,18.58
2022-07-25T12:15:39.070Z,18.76
2022-07-25T12:18:07.534Z,18.56
2022-07-25T12:20:43.556Z,19.60
2022-07-25T12:23:12.540Z,19.07
2022-07-25T12:25:42.835Z,18.75
2022-07-25T12:28:11.010Z,19.22
2022-07-25T12:30:39.543Z,18.54
2022-07-25T12:33:06.721Z,19.16
2022-07-25T12:35:33.983Z,19.10
2022-07-25T12:38:00.678Z,18.74
2022-07-25T12:40:27.542Z,18.87
2022-07-25T12:42:54.999Z,18.90
2022-07-25T12:45:23.233Z,18.73
2022-07-25T12:47:50.022Z,19.58
2022-07-25T12:50:18.579Z,20.15
2022-07-25T12:52:45.832Z,20.08
2022-07-25T12:55:19.657Z,19.98
2022-07-25T12:57:46.901Z,19.84
2022-07-25T13:00:16.618Z,20.25
2022-07-25T13:02:43.555Z,19.15
2022-07-25T13:05:10.556Z,19.88
2022-07-25T13:07:37.990Z,19.98
2022-07-25T13:10:06.446Z,20.43
2022-07-25T13:12:33.305Z,20.18
2022-07-25T13:15:00.284Z,20.29
2022-07-25T13:17:28.072Z,20.41
2022-07-25T13:19:56.500Z,20.65
2022-07-25T13:22:24.262Z,20.47
2022-07-25T13:24:51.521Z,20.25
2022-07-25T13:27:20.134Z,20.58
2022-07-25T13:29:47.266Z,20.89
2022-07-25T13:32:14.045Z,20.33
2022-07-25T13:34:40.859Z,20.02
2022-07-25T13:37:07.552Z,20.54
2022-07-25T13:39:35.875Z,20.81
2022-07-25T13:42:03.189Z,21.04
2022-07-25T13:44:30.130Z,20.31
2022-07-25T13:46:58.717Z,20.59
2022-07-25T13:49:25.961Z,20.95
2022-07-25T13:51:52.816Z,20.55
2022-07-25T13:54:19.613Z,20.75
2022-07-25T13:56:47.603Z,20.35
2022-07-25T13:59:20.487Z,21.08
2022-07-25T14:01:48.467Z,20.70
2022-07-25T14:04:15.237Z,20.91
2022-07-25T14:06:46.588Z,20.28
2022-07-25T14:09:13.355Z,20.55
2022-07-25T14:11:40.136Z,20.34
2022-07-25T14:14:06.773Z,20.90
2022-07-25T14:16:34.388Z,20.86
2022-07-25T14:19:02.283Z,20.76
2022-07-25T14:21:29.951Z,20.88
2022-07-25T14:23:56.598Z,20.23
2022-07-25T14:26:23.376Z,20.95
2022-07-25T14:28:50.061Z,20.82
2022-07-25T14:31:17.535Z,20.55
2022-07-25T14:33:44.262Z,19.26
2022-07-25T14:36:11.109Z,20.43
2022-07-25T14:38:37.879Z,20.45
2022-07-25T14:41:10.501Z,20.24
2022-07-25T14:43:40.234Z,20.46
2022-07-25T14:46:08.143Z,20.41
2022-07-25T14:48:39.079Z,20.50
2022-07-25T14:51:14.337Z,20.44
2022-07-25T14:53:42.702Z,20.65
2022-07-25T14:56:09.519Z,20.96
2022-07-25T14:58:36.309Z,20.60
2022-07-25T15:01:03.295Z,20.82
2022-07-25T15:03:30.161Z,20.86
2022-07-25T15:06:09.759Z,20.80
2022-07-25T15:08:58.418Z,20.71
2022-07-25T15:11:32.577Z,21.26
2022-07-25T15:13:59.520Z,20.95
2022-07-25T15:16:26.361Z,21.18
2022-07-25T15:19:15.004Z,21.43
2022-07-25T15:21:40.348Z,21.71
2022-07-25T15:24:07.531Z,21.85
2022-07-25T15:26:34.344Z,21.86
2022-07-25T15:29:01.266Z,21.85
2022-07-25T15:31:28.323Z,21.74
2022-07-25T15:33:55.080Z,21.76
2022-07-25T15:36:24.562Z,21.83
2022-07-25T15:38:55.671Z,21.86
2022-07-25T15:41:22.562Z,22.05
2022-07-25T15:43:51.304Z,21.49
2022-07-25T15:46:18.141Z,22.01
2022-07-25T15:48:45.650Z,22.58
2022-07-25T15:51:22.236Z,22.69
2022-07-25T15:53:49.265Z,22.24
2022-07-25T15:56:16.432Z,21.95
2022-07-25T15:58:44.365Z,22.04
2022-07-25T16:01:11.369Z,22.49
2022-07-25T16:03:38.412Z,22.53
2022-07-25T16:06:05.355Z,22.43
2022-07-25T16:08:32.422Z,22.88
2022-07-25T16:11:00.180Z,22.60
2022-07-25T16:13:27.284Z,23.01
2022-07-25T16:15:54.136Z,25.81
2022-07-25T16:18:20.951Z,25.57
2022-07-25T16:20:47.886Z,26.40
2022-07-25T16:23:14.621Z,26.96
2022-07-25T16:25:43.760Z,27.58
2022-07-25T16:28:10.564Z,27.06
2022-07-25T16:30:37.380Z,27.65
2022-07-25T16:33:04.376Z,28.18
2022-07-25T16:35:32.077Z,28.33
2022-07-25T16:37:58.801Z,27.46
2022-07-25T16:40:30.224Z,27.76
2022-07-25T16:42:59.371Z,28.46
2022-07-25T16:45:26.600Z,28.16
2022-07-25T16:47:53.498Z,28.38
2022-07-25T16:50:20.766Z,27.81
2022-07-25T16:52:47.543Z,28.54
2022-07-25T16:55:14.450Z,27.68
2022-07-25T16:57:41.148Z,29.25
2022-07-25T17:00:09.554Z,28.10
2022-07-25T17:02:36.245Z,28.06
2022-07-25T17:05:03.915Z,28.06
2022-07-25T17:07:31.619Z,28.59
2022-07-25T17:09:59.523Z,28.66
2022-07-25T17:12:26.478Z,28.86
2022-07-25T17:14:53.905Z,29.10
2022-07-25T17:17:20.741Z,29.80
2022-07-25T17:19:47.590Z,29.57
2022-07-25T17:22:14.361Z,30.28
2022-07-25T17:24:41.801Z,30.14
2022-07-25T17:27:09.425Z,30.33
2022-07-25T17:29:37.452Z,30.59
2022-07-25T17:32:06.131Z,31.28
2022-07-25T17:34:33.151Z,30.70
2022-07-25T17:37:03.026Z,30.88
2022-07-25T17:39:33.543Z,30.92
2022-07-25T17:42:01.135Z,30.78
2022-07-25T17:44:28.670Z,31.09
2022-07-25T17:46:55.795Z,31.13
2022-07-25T17:49:22.715Z,31.36
2022-07-25T17:51:50.342Z,31.36
2022-07-25T17:54:17.078Z,31.27
2022-07-25T17:56:45.476Z,31.87
2022-07-25T17:59:12.390Z,31.98
2022-07-25T18:01:40.039Z,32.34
2022-07-25T18:04:07.341Z,32.15
2022-07-25T18:06:34.637Z,32.56
2022-07-25T18:09:01.489Z,32.45
2022-07-25T18:11:28.266Z,32.39
2022-07-25T18:13:55.024Z,32.82
2022-07-25T18:16:22.794Z,32.86
2022-07-25T18:18:49.635Z,32.77
2022-07-25T18:21:16.514Z,33.59
2022-07-25T18:23:43.303Z,33.74
2022-07-25T18:26:10.212Z,33.60
2022-07-25T18:28:37.058Z,33.56
2022-07-25T18:31:04.623Z,33.96
2022-07-25T18:33:32.302Z,33.97
2022-07-25T18:36:00.905Z,34.61
2022-07-25T18:38:31.458Z,34.52
2022-07-25T18:41:19.297Z,34.63
2022-07-25T18:43:45.741Z,34.85
2022-07-25T18:46:15.020Z,34.35
2022-07-25T18:48:43.445Z,34.43
2022-07-25T18:51:11.044Z,34.96
2022-07-25T18:53:38.127Z,34.96
2022-07-25T18:56:06.246Z,35.38
2022-07-25T18:58:33.278Z,35.61
2022-07-25T19:01:02.835Z,35.56
2022-07-25T19:03:31.666Z,35.27
2022-07-25T19:06:03.087Z,35.84
2022-07-25T19:08:30.777Z,36.50
2022-07-25T19:10:57.498Z,36.14
2022-07-25T19:13:47.655Z,35.89
2022-07-25T19:16:11.982Z,36.99
2022-07-25T19:18:39.642Z,37.56
2022-07-25T19:21:06.917Z,37.46
2022-07-25T19:23:33.774Z,37.30
2022-07-25T19:26:02.273Z,37.77
2022-07-25T19:28:29.195Z,37.85
2022-07-25T19:30:57.167Z,37.54
2022-07-25T19:33:24.465Z,37.70
2022-07-25T19:35:52.482Z,37.49
2022-07-25T19:38:20.236Z,37.37
2022-07-25T19:40:47.919Z,37.67
2022-07-25T19:43:17.043Z,38.11
2022-07-25T19:45:43.907Z,38.22
2022-07-25T19:48:11.705Z,38.63
2022-07-25T19:50:38.484Z,38.28
2022-07-25T19:53:05.204Z,38.36
2022-07-25T19:55:31.929Z,38.25
2022-07-25T19:57:58.588Z,38.69
2022-07-25T20:00:25.317Z,39.15
2022-07-25T20:06:10.908Z,38.75
2022-07-25T20:08:39.536Z,39.17
2022-07-25T20:11:07.773Z,39.34
2022-07-25T20:13:35.882Z,39.00
2022-07-25T20:16:04.038Z,39.35
2022-07-25T20:18:30.896Z,39.36
2022-07-25T20:20:58.266Z,38.98
2022-07-25T20:23:25.197Z,39.21
2022-07-25T20:25:52.123Z,39.43
2022-07-25T20:28:18.924Z,39.39
2022-07-25T20:30:45.929Z,39.17
2022-07-25T20:33:12.863Z,38.96
2022-07-25T20:35:40.037Z,38.87
2022-07-25T20:38:09.800Z,38.69
2022-07-25T20:40:39.535Z,39.06
2022-07-25T20:43:09.231Z,39.18
2022-07-25T20:45:36.815Z,38.44
2022-07-25T20:48:04.882Z,39.03
2022-07-25T20:50:32.052Z,39.27
2022-07-25T20:52:58.887Z,39.76
2022-07-25T20:55:28.480Z,39.99
2022-07-25T20:57:55.338Z,39.78
2022-07-25T21:00:22.952Z,40.24
2022-07-25T21:02:49.775Z,40.76
2022-07-25T21:05:16.479Z,41.50
2022-07-25T21:07:43.672Z,41.80
2022-07-25T21:10:11.094Z,41.63
2022-07-25T21:12:38.710Z,41.65
2022-07-25T21:15:06.933Z,41.29
2022-07-25T21:17:34.411Z,40.99
2022-07-25T21:20:01.215Z,40.84
2022-07-25T21:22:27.972Z,41.04
2022-07-25T21:24:54.766Z,41.51
2022-07-25T21:27:21.602Z,42.37
2022-07-25T21:29:48.351Z,42.99
2022-07-25T21:32:15.993Z,42.50
2022-07-25T21:34:47.386Z,42.70
2022-07-25T21:37:14.322Z,42.29
2022-07-25T21:39:41.185Z,42.56
2022-07-25T21:42:10.038Z,43.19
2022-07-25T21:44:39.857Z,43.31
2022-07-25T21:47:07.074Z,42.77
2022-07-25T21:49:52.654Z,42.44
2022-07-25T21:52:19.718Z,42.70
2022-07-25T21:54:57.152Z,42.85
2022-07-25T21:57:23.813Z,43.15
2022-07-25T21:59:50.564Z,43.22
2022-07-25T22:02:18.292Z,43.49
2022-07-25T22:04:45.147Z,43.57
2022-07-25T22:07:11.893Z,43.84
2022-07-25T22:09:38.731Z,44.52
2022-07-25T22:12:05.822Z,45.05
2022-07-25T22:14:32.717Z,45.13
2022-07-25T22:16:59.533Z,45.16
2022-07-25T22:19:26.280Z,45.56
2022-07-25T22:21:53.123Z,46.09
2022-07-25T22:24:19.840Z,46.17
2022-07-25T22:26:46.736Z,46.24
2022-07-25T22:29:13.427Z,46.27
2022-07-25T22:31:40.473Z,45.95
2022-07-25T22:34:07.447Z,46.27
2022-07-25T22:36:34.182Z,47.01
2022-07-25T22:39:00.881Z,46.42
2022-07-25T22:41:27.853Z,46.91
2022-07-25T22:43:58.885Z,47.30
2022-07-25T22:46:30.171Z,47.68
2022-07-25T22:48:58.296Z,47.70
2022-07-25T22:51:25.539Z,48.52
2022-07-25T22:53:52.724Z,49.35
2022-07-25T22:56:20.124Z,49.64
2022-07-25T22:58:49.227Z,50.26
2022-07-25T23:01:19.948Z,50.10
2022-07-25T23:03:49.956Z,49.84
2022-07-25T23:06:18.641Z,50.44
2022-07-25T23:08:45.542Z,50.67
2022-07-25T23:11:12.488Z,50.52
2022-07-25T23:13:39.193Z,50.97
2022-07-25T23:16:06.359Z,51.01
2022-07-25T23:18:37.633Z,50.87
2022-07-25T23:21:04.487Z,51.30
2022-07-25T23:23:31.372Z,51.09
2022-07-25T23:25:58.095Z,51.75
2022-07-25T23:28:24.757Z,51.84
2022-07-25T23:30:51.536Z,52.40
2022-07-25T23:33:18.285Z,52.70
2022-07-25T23:35:52.541Z,53.07
2022-07-25T23:38:19.344Z,53.56
2022-07-25T23:40:46.040Z,53.56
2022-07-25T23:43:13.678Z,53.29
2022-07-25T23:45:43.737Z,53.67
2022-07-25T23:48:13.195Z,54.22
2022-07-25T23:50:39.869Z,54.23
2022-07-25T23:53:06.728Z,53.94
2022-07-25T23:55:35.203Z,53.75
2022-07-25T23:58:01.997Z,54.01
